sensor_id;sensor_type;location;lat;lon;timestamp;temperature;humidity
21493;DHT22;10908;50.690;4.400;2022-12-07T00:01:27;5.30;89.70
21493;DHT22;10908;50.690;4.400;2022-12-07T00:03:55;5.30;89.80
21493;DHT22;10908;50.690;4.400;2022-12-07T00:06:36;5.20;89.90
21493;DHT22;10908;50.690;4.400;2022-12-07T00:09:04;5.20;89.80
21493;DHT22;10908;50.690;4.400;2022-12-07T00:11:30;5.20;89.80
21493;DHT22;10908;50.690;4.400;2022-12-07T00:13:58;5.20;89.70
21493;DHT22;10908;50.690;4.400;2022-12-07T00:16:26;5.20;89.80
21493;DHT22;10908;50.690;4.400;2022-12-07T00:18:52;5.10;89.70
21493;DHT22;10908;50.690;4.400;2022-12-07T00:21:26;5.10;89.60
21493;DHT22;10908;50.690;4.400;2022-12-07T00:23:53;5.10;89.60
21493;DHT22;10908;50.690;4.400;2022-12-07T00:28:51;5.00;89.80
21493;DHT22;10908;50.690;4.400;2022-12-07T00:31:19;5.00;89.90
21493;DHT22;10908;50.690;4.400;2022-12-07T00:33:45;5.10;89.90
21493;DHT22;10908;50.690;4.400;2022-12-07T00:36:14;5.10;89.90
21493;DHT22;10908;50.690;4.400;2022-12-07T00:38:40;5.10;89.80
21493;DHT22;10908;50.690;4.400;2022-12-07T00:41:09;5.00;89.80
21493;DHT22;10908;50.690;4.400;2022-12-07T00:43:35;5.10;89.70
21493;DHT22;10908;50.690;4.400;2022-12-07T00:46:01;5.00;89.70
21493;DHT22;10908;50.690;4.400;2022-12-07T00:48:27;4.90;89.60
21493;DHT22;10908;50.690;4.400;2022-12-07T00:50:53;5.00;89.60
21493;DHT22;10908;50.690;4.400;2022-12-07T00:53:18;5.00;89.50
21493;DHT22;10908;50.690;4.400;2022-12-07T00:55:45;4.90;89.30
21493;DHT22;10908;50.690;4.400;2022-12-07T00:58:11;4.80;89.30
21493;DHT22;10908;50.690;4.400;2022-12-07T01:00:38;4.70;89.50
21493;DHT22;10908;50.690;4.400;2022-12-07T01:03:05;4.60;89.60
21493;DHT22;10908;50.690;4.400;2022-12-07T01:05:31;4.70;89.70
21493;DHT22;10908;50.690;4.400;2022-12-07T01:07:56;4.70;89.90
21493;DHT22;10908;50.690;4.400;2022-12-07T01:10:22;4.80;89.80
21493;DHT22;10908;50.690;4.400;2022-12-07T01:12:47;4.60;89.80
21493;DHT22;10908;50.690;4.400;2022-12-07T01:15:13;4.60;89.70
21493;DHT22;10908;50.690;4.400;2022-12-07T01:17:39;4.50;89.90
21493;DHT22;10908;50.690;4.400;2022-12-07T01:20:05;4.50;89.80
21493;DHT22;10908;50.690;4.400;2022-12-07T01:22:31;4.50;89.80
21493;DHT22;10908;50.690;4.400;2022-12-07T01:24:56;4.50;89.80
21493;DHT22;10908;50.690;4.400;2022-12-07T01:27:22;4.60;89.90
21493;DHT22;10908;50.690;4.400;2022-12-07T01:29:47;4.60;89.90
21493;DHT22;10908;50.690;4.400;2022-12-07T01:32:13;4.70;89.80
21493;DHT22;10908;50.690;4.400;2022-12-07T01:34:39;4.70;89.70
21493;DHT22;10908;50.690;4.400;2022-12-07T01:37:04;4.80;89.70
21493;DHT22;10908;50.690;4.400;2022-12-07T01:39:30;4.70;89.60
21493;DHT22;10908;50.690;4.400;2022-12-07T01:41:56;4.70;89.50
21493;DHT22;10908;50.690;4.400;2022-12-07T01:44:26;4.80;89.50
21493;DHT22;10908;50.690;4.400;2022-12-07T01:46:57;4.80;89.50
21493;DHT22;10908;50.690;4.400;2022-12-07T01:49:31;4.80;89.60
21493;DHT22;10908;50.690;4.400;2022-12-07T01:52:13;4.80;89.60
21493;DHT22;10908;50.690;4.400;2022-12-07T01:54:42;4.80;89.40
21493;DHT22;10908;50.690;4.400;2022-12-07T01:57:08;4.70;89.30
21493;DHT22;10908;50.690;4.400;2022-12-07T01:59:35;4.80;89.30
21493;DHT22;10908;50.690;4.400;2022-12-07T02:02:02;4.70;89.20
21493;DHT22;10908;50.690;4.400;2022-12-07T02:04:29;4.70;89.20
21493;DHT22;10908;50.690;4.400;2022-12-07T02:06:55;4.60;89.40
21493;DHT22;10908;50.690;4.400;2022-12-07T02:09:22;4.60;89.40
21493;DHT22;10908;50.690;4.400;2022-12-07T02:11:48;4.60;89.50
21493;DHT22;10908;50.690;4.400;2022-12-07T02:14:14;4.70;89.40
21493;DHT22;10908;50.690;4.400;2022-12-07T02:28:12;4.60;89.50
21493;DHT22;10908;50.690;4.400;2022-12-07T02:30:45;4.80;89.50
21493;DHT22;10908;50.690;4.400;2022-12-07T02:33:16;4.90;89.20
21493;DHT22;10908;50.690;4.400;2022-12-07T02:35:51;4.90;89.00
21493;DHT22;10908;50.690;4.400;2022-12-07T02:41:36;4.90;88.70
21493;DHT22;10908;50.690;4.400;2022-12-07T02:44:20;4.90;88.80
21493;DHT22;10908;50.690;4.400;2022-12-07T02:46:57;4.90;88.80
21493;DHT22;10908;50.690;4.400;2022-12-07T02:49:26;4.80;88.90
21493;DHT22;10908;50.690;4.400;2022-12-07T02:51:52;4.80;89.00
21493;DHT22;10908;50.690;4.400;2022-12-07T02:54:19;4.70;89.20
21493;DHT22;10908;50.690;4.400;2022-12-07T02:56:48;4.80;89.40
21493;DHT22;10908;50.690;4.400;2022-12-07T03:07:58;4.80;89.70
21493;DHT22;10908;50.690;4.400;2022-12-07T03:16:18;4.90;89.80
21493;DHT22;10908;50.690;4.400;2022-12-07T03:19:05;4.90;89.70
21493;DHT22;10908;50.690;4.400;2022-12-07T03:21:46;4.90;89.60
21493;DHT22;10908;50.690;4.400;2022-12-07T03:24:15;4.90;89.50
21493;DHT22;10908;50.690;4.400;2022-12-07T03:26:48;4.80;89.60
21493;DHT22;10908;50.690;4.400;2022-12-07T03:29:24;4.80;89.90
21493;DHT22;10908;50.690;4.400;2022-12-07T03:32:24;4.80;90.00
21493;DHT22;10908;50.690;4.400;2022-12-07T03:35:14;4.80;90.10
21493;DHT22;10908;50.690;4.400;2022-12-07T03:37:43;4.80;90.10
21493;DHT22;10908;50.690;4.400;2022-12-07T03:42:48;4.70;90.20
21493;DHT22;10908;50.690;4.400;2022-12-07T03:45:14;4.80;90.30
21493;DHT22;10908;50.690;4.400;2022-12-07T03:47:46;4.70;90.20
21493;DHT22;10908;50.690;4.400;2022-12-07T03:50:24;4.70;90.30
21493;DHT22;10908;50.690;4.400;2022-12-07T03:52:58;4.70;90.30
21493;DHT22;10908;50.690;4.400;2022-12-07T03:55:37;4.80;90.20
21493;DHT22;10908;50.690;4.400;2022-12-07T03:58:09;4.80;90.20
21493;DHT22;10908;50.690;4.400;2022-12-07T04:00:36;4.80;90.10
21493;DHT22;10908;50.690;4.400;2022-12-07T04:03:01;4.90;90.00
21493;DHT22;10908;50.690;4.400;2022-12-07T04:05:27;4.80;89.90
21493;DHT22;10908;50.690;4.400;2022-12-07T04:07:53;4.70;89.90
21493;DHT22;10908;50.690;4.400;2022-12-07T04:10:19;4.80;89.80
21493;DHT22;10908;50.690;4.400;2022-12-07T04:12:45;4.80;89.70
21493;DHT22;10908;50.690;4.400;2022-12-07T04:15:11;4.80;89.60
21493;DHT22;10908;50.690;4.400;2022-12-07T04:17:36;4.80;89.50
21493;DHT22;10908;50.690;4.400;2022-12-07T04:20:02;4.60;89.50
21493;DHT22;10908;50.690;4.400;2022-12-07T04:22:29;4.50;89.50
21493;DHT22;10908;50.690;4.400;2022-12-07T04:24:55;4.40;89.60
21493;DHT22;10908;50.690;4.400;2022-12-07T04:27:20;4.40;89.80
21493;DHT22;10908;50.690;4.400;2022-12-07T04:29:46;4.40;90.00
21493;DHT22;10908;50.690;4.400;2022-12-07T04:32:11;4.30;90.20
21493;DHT22;10908;50.690;4.400;2022-12-07T04:34:37;4.30;90.30
21493;DHT22;10908;50.690;4.400;2022-12-07T04:37:03;4.30;90.40
21493;DHT22;10908;50.690;4.400;2022-12-07T04:39:29;4.40;90.50
21493;DHT22;10908;50.690;4.400;2022-12-07T04:41:55;4.40;90.60
21493;DHT22;10908;50.690;4.400;2022-12-07T04:44:22;4.50;90.60
21493;DHT22;10908;50.690;4.400;2022-12-07T04:46:49;4.50;90.60
21493;DHT22;10908;50.690;4.400;2022-12-07T04:49:15;4.50;90.50
21493;DHT22;10908;50.690;4.400;2022-12-07T04:51:41;4.50;90.50
21493;DHT22;10908;50.690;4.400;2022-12-07T04:54:07;4.50;90.50
21493;DHT22;10908;50.690;4.400;2022-12-07T04:56:34;4.40;90.50
21493;DHT22;10908;50.690;4.400;2022-12-07T04:59:01;4.50;90.60
21493;DHT22;10908;50.690;4.400;2022-12-07T05:01:27;4.50;90.60
21493;DHT22;10908;50.690;4.400;2022-12-07T05:03:52;4.60;90.60
21493;DHT22;10908;50.690;4.400;2022-12-07T05:06:18;4.60;90.50
21493;DHT22;10908;50.690;4.400;2022-12-07T05:08:44;4.60;90.30
21493;DHT22;10908;50.690;4.400;2022-12-07T05:11:10;4.60;90.20
21493;DHT22;10908;50.690;4.400;2022-12-07T05:14:00;4.50;90.20
21493;DHT22;10908;50.690;4.400;2022-12-07T05:16:26;4.50;90.20
21493;DHT22;10908;50.690;4.400;2022-12-07T05:18:51;4.60;90.20
21493;DHT22;10908;50.690;4.400;2022-12-07T05:21:17;4.60;90.10
21493;DHT22;10908;50.690;4.400;2022-12-07T05:23:43;4.60;90.10
21493;DHT22;10908;50.690;4.400;2022-12-07T05:26:09;4.60;90.20
21493;DHT22;10908;50.690;4.400;2022-12-07T05:28:35;4.60;90.20
21493;DHT22;10908;50.690;4.400;2022-12-07T05:31:01;4.60;90.30
21493;DHT22;10908;50.690;4.400;2022-12-07T05:33:27;4.60;90.20
21493;DHT22;10908;50.690;4.400;2022-12-07T05:35:52;4.60;90.20
21493;DHT22;10908;50.690;4.400;2022-12-07T05:38:18;4.60;90.20
21493;DHT22;10908;50.690;4.400;2022-12-07T05:40:43;4.60;90.20
21493;DHT22;10908;50.690;4.400;2022-12-07T05:43:09;4.60;90.20
21493;DHT22;10908;50.690;4.400;2022-12-07T05:45:35;4.60;90.30
21493;DHT22;10908;50.690;4.400;2022-12-07T05:48:01;4.70;90.30
21493;DHT22;10908;50.690;4.400;2022-12-07T05:50:26;4.70;90.30
21493;DHT22;10908;50.690;4.400;2022-12-07T05:52:53;4.70;90.20
21493;DHT22;10908;50.690;4.400;2022-12-07T05:55:19;4.60;90.10
21493;DHT22;10908;50.690;4.400;2022-12-07T05:57:45;4.60;90.30
21493;DHT22;10908;50.690;4.400;2022-12-07T06:00:30;4.60;90.30
21493;DHT22;10908;50.690;4.400;2022-12-07T06:02:56;4.60;90.40
21493;DHT22;10908;50.690;4.400;2022-12-07T06:05:22;4.60;90.50
21493;DHT22;10908;50.690;4.400;2022-12-07T06:07:48;4.60;90.50
21493;DHT22;10908;50.690;4.400;2022-12-07T06:10:14;4.70;90.40
21493;DHT22;10908;50.690;4.400;2022-12-07T06:12:40;4.70;90.20
21493;DHT22;10908;50.690;4.400;2022-12-07T06:15:09;4.70;90.10
21493;DHT22;10908;50.690;4.400;2022-12-07T06:17:35;4.60;90.10
21493;DHT22;10908;50.690;4.400;2022-12-07T06:20:01;4.60;90.10
21493;DHT22;10908;50.690;4.400;2022-12-07T06:22:27;4.60;90.10
21493;DHT22;10908;50.690;4.400;2022-12-07T06:24:52;4.60;90.10
21493;DHT22;10908;50.690;4.400;2022-12-07T06:27:18;4.70;90.20
21493;DHT22;10908;50.690;4.400;2022-12-07T06:29:44;4.60;90.20
21493;DHT22;10908;50.690;4.400;2022-12-07T06:32:09;4.70;90.20
21493;DHT22;10908;50.690;4.400;2022-12-07T06:34:35;4.60;90.10
21493;DHT22;10908;50.690;4.400;2022-12-07T06:37:01;4.70;90.20
21493;DHT22;10908;50.690;4.400;2022-12-07T06:39:28;4.60;90.10
21493;DHT22;10908;50.690;4.400;2022-12-07T06:41:54;4.60;90.10
21493;DHT22;10908;50.690;4.400;2022-12-07T06:44:21;4.60;90.10
21493;DHT22;10908;50.690;4.400;2022-12-07T06:46:47;4.60;90.00
21493;DHT22;10908;50.690;4.400;2022-12-07T06:49:13;4.60;89.80
21493;DHT22;10908;50.690;4.400;2022-12-07T06:51:39;4.60;89.80
21493;DHT22;10908;50.690;4.400;2022-12-07T06:54:11;4.70;89.80
21493;DHT22;10908;50.690;4.400;2022-12-07T06:56:37;4.70;89.90
21493;DHT22;10908;50.690;4.400;2022-12-07T06:59:05;4.60;89.80
21493;DHT22;10908;50.690;4.400;2022-12-07T07:01:33;4.60;89.80
21493;DHT22;10908;50.690;4.400;2022-12-07T07:03:58;4.60;89.70
21493;DHT22;10908;50.690;4.400;2022-12-07T07:06:24;4.60;89.80
21493;DHT22;10908;50.690;4.400;2022-12-07T07:08:50;4.60;89.80
21493;DHT22;10908;50.690;4.400;2022-12-07T07:11:16;4.70;89.90
21493;DHT22;10908;50.690;4.400;2022-12-07T07:13:41;4.80;89.90
21493;DHT22;10908;50.690;4.400;2022-12-07T07:16:07;4.90;89.70
21493;DHT22;10908;50.690;4.400;2022-12-07T07:18:33;4.90;89.60
21493;DHT22;10908;50.690;4.400;2022-12-07T07:20:59;4.90;89.50
21493;DHT22;10908;50.690;4.400;2022-12-07T07:23:24;4.90;89.50
21493;DHT22;10908;50.690;4.400;2022-12-07T07:25:50;4.80;89.40
21493;DHT22;10908;50.690;4.400;2022-12-07T07:28:16;4.70;89.30
21493;DHT22;10908;50.690;4.400;2022-12-07T07:30:42;4.60;89.50
21493;DHT22;10908;50.690;4.400;2022-12-07T07:33:08;4.60;89.60
21493;DHT22;10908;50.690;4.400;2022-12-07T07:35:34;4.70;89.70
21493;DHT22;10908;50.690;4.400;2022-12-07T07:38:00;4.90;89.70
21493;DHT22;10908;50.690;4.400;2022-12-07T07:40:27;4.80;89.60
21493;DHT22;10908;50.690;4.400;2022-12-07T07:42:54;4.90;89.50
21493;DHT22;10908;50.690;4.400;2022-12-07T07:45:22;5.10;89.30
21493;DHT22;10908;50.690;4.400;2022-12-07T07:47:48;5.20;89.00
21493;DHT22;10908;50.690;4.400;2022-12-07T07:50:14;5.10;88.70
21493;DHT22;10908;50.690;4.400;2022-12-07T07:52:40;5.10;88.70
21493;DHT22;10908;50.690;4.400;2022-12-07T07:55:07;5.10;88.80
21493;DHT22;10908;50.690;4.400;2022-12-07T07:57:34;4.90;88.80
21493;DHT22;10908;50.690;4.400;2022-12-07T08:00:01;4.80;88.90
21493;DHT22;10908;50.690;4.400;2022-12-07T08:02:26;4.80;89.10
21493;DHT22;10908;50.690;4.400;2022-12-07T08:04:54;4.90;89.20
21493;DHT22;10908;50.690;4.400;2022-12-07T08:07:20;4.80;89.30
21493;DHT22;10908;50.690;4.400;2022-12-07T08:09:46;4.80;89.40
21493;DHT22;10908;50.690;4.400;2022-12-07T08:12:12;4.80;89.50
21493;DHT22;10908;50.690;4.400;2022-12-07T08:14:37;4.80;89.50
21493;DHT22;10908;50.690;4.400;2022-12-07T08:17:03;4.80;89.60
21493;DHT22;10908;50.690;4.400;2022-12-07T08:19:29;4.80;89.70
21493;DHT22;10908;50.690;4.400;2022-12-07T08:21:55;4.90;89.80
21493;DHT22;10908;50.690;4.400;2022-12-07T08:24:21;4.80;89.90
21493;DHT22;10908;50.690;4.400;2022-12-07T08:26:47;4.90;89.90
21493;DHT22;10908;50.690;4.400;2022-12-07T08:29:13;4.90;89.90
21493;DHT22;10908;50.690;4.400;2022-12-07T08:31:39;4.90;89.90
21493;DHT22;10908;50.690;4.400;2022-12-07T08:34:05;5.00;89.90
21493;DHT22;10908;50.690;4.400;2022-12-07T08:36:30;5.10;89.70
21493;DHT22;10908;50.690;4.400;2022-12-07T08:38:56;5.00;89.60
21493;DHT22;10908;50.690;4.400;2022-12-07T08:41:22;5.00;89.50
21493;DHT22;10908;50.690;4.400;2022-12-07T08:43:47;4.90;89.50
21493;DHT22;10908;50.690;4.400;2022-12-07T08:46:23;4.80;89.60
21493;DHT22;10908;50.690;4.400;2022-12-07T08:49:02;4.80;89.80
21493;DHT22;10908;50.690;4.400;2022-12-07T08:51:28;4.80;89.80
21493;DHT22;10908;50.690;4.400;2022-12-07T08:53:56;4.80;89.90
21493;DHT22;10908;50.690;4.400;2022-12-07T08:56:23;4.80;90.00
21493;DHT22;10908;50.690;4.400;2022-12-07T08:58:50;4.80;90.10
21493;DHT22;10908;50.690;4.400;2022-12-07T09:01:15;4.90;90.10
21493;DHT22;10908;50.690;4.400;2022-12-07T09:03:41;4.90;90.00
21493;DHT22;10908;50.690;4.400;2022-12-07T09:06:07;4.90;90.10
21493;DHT22;10908;50.690;4.400;2022-12-07T09:08:36;4.90;90.20
21493;DHT22;10908;50.690;4.400;2022-12-07T09:11:04;5.00;90.20
21493;DHT22;10908;50.690;4.400;2022-12-07T09:13:30;5.10;90.30
21493;DHT22;10908;50.690;4.400;2022-12-07T09:15:56;5.20;90.30
21493;DHT22;10908;50.690;4.400;2022-12-07T09:18:21;5.30;90.30
21493;DHT22;10908;50.690;4.400;2022-12-07T09:20:47;5.30;90.20
21493;DHT22;10908;50.690;4.400;2022-12-07T09:23:13;5.40;90.20
21493;DHT22;10908;50.690;4.400;2022-12-07T09:25:38;5.40;90.10
21493;DHT22;10908;50.690;4.400;2022-12-07T09:28:04;5.40;90.10
21493;DHT22;10908;50.690;4.400;2022-12-07T09:30:29;5.40;90.10
21493;DHT22;10908;50.690;4.400;2022-12-07T09:32:56;5.60;90.00
21493;DHT22;10908;50.690;4.400;2022-12-07T09:35:23;5.80;89.90
21493;DHT22;10908;50.690;4.400;2022-12-07T09:37:49;5.70;89.80
21493;DHT22;10908;50.690;4.400;2022-12-07T09:40:16;5.80;89.60
21493;DHT22;10908;50.690;4.400;2022-12-07T09:42:46;5.70;89.30
21493;DHT22;10908;50.690;4.400;2022-12-07T09:45:34;5.70;89.10
21493;DHT22;10908;50.690;4.400;2022-12-07T09:48:02;5.60;89.00
21493;DHT22;10908;50.690;4.400;2022-12-07T09:50:29;5.70;89.00
21493;DHT22;10908;50.690;4.400;2022-12-07T09:53:12;5.70;89.00
21493;DHT22;10908;50.690;4.400;2022-12-07T09:55:41;5.80;89.00
21493;DHT22;10908;50.690;4.400;2022-12-07T09:58:16;5.80;89.10
21493;DHT22;10908;50.690;4.400;2022-12-07T10:00:44;5.90;89.10
21493;DHT22;10908;50.690;4.400;2022-12-07T10:03:11;5.90;89.30
21493;DHT22;10908;50.690;4.400;2022-12-07T10:05:44;6.10;89.40
21493;DHT22;10908;50.690;4.400;2022-12-07T10:08:14;6.30;89.30
21493;DHT22;10908;50.690;4.400;2022-12-07T10:10:43;6.40;89.00
21493;DHT22;10908;50.690;4.400;2022-12-07T10:13:13;6.40;88.80
21493;DHT22;10908;50.690;4.400;2022-12-07T10:15:52;6.30;88.60
21493;DHT22;10908;50.690;4.400;2022-12-07T10:18:33;6.40;88.30
21493;DHT22;10908;50.690;4.400;2022-12-07T10:23:35;6.60;88.00
21493;DHT22;10908;50.690;4.400;2022-12-07T10:26:20;6.60;87.80
21493;DHT22;10908;50.690;4.400;2022-12-07T10:28:47;6.80;87.60
21493;DHT22;10908;50.690;4.400;2022-12-07T10:31:19;6.80;87.30
21493;DHT22;10908;50.690;4.400;2022-12-07T10:33:49;6.80;87.00
21493;DHT22;10908;50.690;4.400;2022-12-07T10:36:36;6.90;86.90
21493;DHT22;10908;50.690;4.400;2022-12-07T10:41:58;6.80;86.50
21493;DHT22;10908;50.690;4.400;2022-12-07T10:44:27;6.80;86.40
21493;DHT22;10908;50.690;4.400;2022-12-07T11:00:46;6.80;86.40
21493;DHT22;10908;50.690;4.400;2022-12-07T11:11:23;7.00;87.00
21493;DHT22;10908;50.690;4.400;2022-12-07T11:24:45;7.10;86.40
21493;DHT22;10908;50.690;4.400;2022-12-07T11:38:01;6.90;86.70
21493;DHT22;10908;50.690;4.400;2022-12-07T11:40:35;7.00;86.70
21493;DHT22;10908;50.690;4.400;2022-12-07T11:43:21;6.90;87.10
21493;DHT22;10908;50.690;4.400;2022-12-07T11:46:03;6.90;87.30
21493;DHT22;10908;50.690;4.400;2022-12-07T11:48:41;6.90;87.00
21493;DHT22;10908;50.690;4.400;2022-12-07T11:51:11;6.80;87.00
21493;DHT22;10908;50.690;4.400;2022-12-07T11:53:48;6.70;87.10
21493;DHT22;10908;50.690;4.400;2022-12-07T11:56:16;6.80;87.30
21493;DHT22;10908;50.690;4.400;2022-12-07T11:58:49;6.80;87.40
21493;DHT22;10908;50.690;4.400;2022-12-07T12:06:37;6.80;87.30
21493;DHT22;10908;50.690;4.400;2022-12-07T12:17:15;6.60;87.70
21493;DHT22;10908;50.690;4.400;2022-12-07T12:22:49;6.50;87.90
21493;DHT22;10908;50.690;4.400;2022-12-07T12:25:25;6.50;87.90
21493;DHT22;10908;50.690;4.400;2022-12-07T12:27:53;6.60;87.90
21493;DHT22;10908;50.690;4.400;2022-12-07T12:30:29;6.60;87.70
21493;DHT22;10908;50.690;4.400;2022-12-07T12:33:05;6.50;87.70
21493;DHT22;10908;50.690;4.400;2022-12-07T12:35:35;6.70;87.80
21493;DHT22;10908;50.690;4.400;2022-12-07T12:38:22;6.80;87.60
21493;DHT22;10908;50.690;4.400;2022-12-07T12:40:49;6.80;87.50
21493;DHT22;10908;50.690;4.400;2022-12-07T12:43:41;6.80;87.50
21493;DHT22;10908;50.690;4.400;2022-12-07T12:51:47;7.00;87.10
21493;DHT22;10908;50.690;4.400;2022-12-07T13:05:01;6.80;86.90
21493;DHT22;10908;50.690;4.400;2022-12-07T13:20:58;6.70;86.40
21493;DHT22;10908;50.690;4.400;2022-12-07T13:31:43;6.80;86.20
21493;DHT22;10908;50.690;4.400;2022-12-07T13:36:58;6.70;86.10
21493;DHT22;10908;50.690;4.400;2022-12-07T13:39:25;6.80;86.20
21493;DHT22;10908;50.690;4.400;2022-12-07T13:44:19;6.80;85.90
21493;DHT22;10908;50.690;4.400;2022-12-07T13:49:28;6.80;86.10
21493;DHT22;10908;50.690;4.400;2022-12-07T13:51:54;6.90;86.10
21493;DHT22;10908;50.690;4.400;2022-12-07T13:54:21;6.90;86.20
21493;DHT22;10908;50.690;4.400;2022-12-07T13:56:51;7.00;86.20
21493;DHT22;10908;50.690;4.400;2022-12-07T13:59:21;6.90;86.30
21493;DHT22;10908;50.690;4.400;2022-12-07T14:01:48;6.90;86.40
21493;DHT22;10908;50.690;4.400;2022-12-07T14:04:37;7.00;86.10
21493;DHT22;10908;50.690;4.400;2022-12-07T14:07:25;6.90;85.70
21493;DHT22;10908;50.690;4.400;2022-12-07T14:09:57;6.90;85.70
21493;DHT22;10908;50.690;4.400;2022-12-07T14:12:24;7.00;85.70
21493;DHT22;10908;50.690;4.400;2022-12-07T14:14:51;6.90;85.80
21493;DHT22;10908;50.690;4.400;2022-12-07T14:17:22;6.90;86.10
21493;DHT22;10908;50.690;4.400;2022-12-07T14:19:53;6.80;86.30
21493;DHT22;10908;50.690;4.400;2022-12-07T14:24:51;6.90;86.50
21493;DHT22;10908;50.690;4.400;2022-12-07T14:27:21;6.90;86.50
21493;DHT22;10908;50.690;4.400;2022-12-07T14:29:48;6.90;86.40
21493;DHT22;10908;50.690;4.400;2022-12-07T14:32:26;7.00;86.50
21493;DHT22;10908;50.690;4.400;2022-12-07T14:35:13;7.00;86.10
21493;DHT22;10908;50.690;4.400;2022-12-07T14:37:40;6.90;85.90
21493;DHT22;10908;50.690;4.400;2022-12-07T14:40:07;7.00;85.80
21493;DHT22;10908;50.690;4.400;2022-12-07T14:42:33;7.00;85.90
21493;DHT22;10908;50.690;4.400;2022-12-07T14:44:59;6.90;85.90
21493;DHT22;10908;50.690;4.400;2022-12-07T14:47:26;6.90;85.70
21493;DHT22;10908;50.690;4.400;2022-12-07T14:49:52;6.90;85.50
21493;DHT22;10908;50.690;4.400;2022-12-07T14:52:24;7.00;85.50
21493;DHT22;10908;50.690;4.400;2022-12-07T14:54:52;6.90;85.60
21493;DHT22;10908;50.690;4.400;2022-12-07T14:57:18;6.90;85.70
21493;DHT22;10908;50.690;4.400;2022-12-07T14:59:43;6.90;85.80
21493;DHT22;10908;50.690;4.400;2022-12-07T15:02:11;6.90;85.90
21493;DHT22;10908;50.690;4.400;2022-12-07T15:04:38;6.80;85.90
21493;DHT22;10908;50.690;4.400;2022-12-07T15:07:05;6.80;85.90
21493;DHT22;10908;50.690;4.400;2022-12-07T15:09:31;6.80;86.00
21493;DHT22;10908;50.690;4.400;2022-12-07T15:11:57;6.80;85.90
21493;DHT22;10908;50.690;4.400;2022-12-07T15:14:22;6.80;86.00
21493;DHT22;10908;50.690;4.400;2022-12-07T15:16:48;6.80;86.10
21493;DHT22;10908;50.690;4.400;2022-12-07T15:19:22;6.80;86.20
21493;DHT22;10908;50.690;4.400;2022-12-07T15:21:49;6.80;86.30
21493;DHT22;10908;50.690;4.400;2022-12-07T15:24:15;6.70;86.40
21493;DHT22;10908;50.690;4.400;2022-12-07T15:26:41;6.70;86.60
21493;DHT22;10908;50.690;4.400;2022-12-07T15:29:07;6.70;86.60
21493;DHT22;10908;50.690;4.400;2022-12-07T15:31:34;6.70;86.60
21493;DHT22;10908;50.690;4.400;2022-12-07T15:34:00;6.60;86.60
21493;DHT22;10908;50.690;4.400;2022-12-07T15:36:28;6.60;86.40
21493;DHT22;10908;50.690;4.400;2022-12-07T15:38:54;6.60;86.40
21493;DHT22;10908;50.690;4.400;2022-12-07T15:41:20;6.70;86.40
21493;DHT22;10908;50.690;4.400;2022-12-07T15:56:08;6.40;86.20
21493;DHT22;10908;50.690;4.400;2022-12-07T15:58:34;6.60;84.70
21493;DHT22;10908;50.690;4.400;2022-12-07T16:01:00;6.50;84.50
21493;DHT22;10908;50.690;4.400;2022-12-07T16:03:27;6.50;84.60
21493;DHT22;10908;50.690;4.400;2022-12-07T16:05:53;6.50;84.50
21493;DHT22;10908;50.690;4.400;2022-12-07T16:08:19;6.60;84.60
21493;DHT22;10908;50.690;4.400;2022-12-07T16:10:44;6.60;84.60
21493;DHT22;10908;50.690;4.400;2022-12-07T16:13:11;6.50;84.70
21493;DHT22;10908;50.690;4.400;2022-12-07T16:15:40;6.60;85.00
21493;DHT22;10908;50.690;4.400;2022-12-07T16:18:06;6.50;85.20
21493;DHT22;10908;50.690;4.400;2022-12-07T16:20:32;6.40;85.40
21493;DHT22;10908;50.690;4.400;2022-12-07T16:22:58;6.20;85.70
21493;DHT22;10908;50.690;4.400;2022-12-07T16:25:23;6.20;86.30
21493;DHT22;10908;50.690;4.400;2022-12-07T16:27:49;6.10;86.60
21493;DHT22;10908;50.690;4.400;2022-12-07T16:30:15;6.10;86.80
21493;DHT22;10908;50.690;4.400;2022-12-07T16:32:41;6.10;86.90
21493;DHT22;10908;50.690;4.400;2022-12-07T16:35:08;6.10;87.00
21493;DHT22;10908;50.690;4.400;2022-12-07T16:37:33;6.10;87.10
21493;DHT22;10908;50.690;4.400;2022-12-07T16:39:59;6.10;87.30
21493;DHT22;10908;50.690;4.400;2022-12-07T16:42:24;6.10;87.40
21493;DHT22;10908;50.690;4.400;2022-12-07T16:44:50;6.10;87.30
21493;DHT22;10908;50.690;4.400;2022-12-07T16:47:16;6.00;87.30
21493;DHT22;10908;50.690;4.400;2022-12-07T16:49:42;6.10;87.20
21493;DHT22;10908;50.690;4.400;2022-12-07T16:52:08;6.00;87.30
21493;DHT22;10908;50.690;4.400;2022-12-07T16:54:33;6.00;87.50
21493;DHT22;10908;50.690;4.400;2022-12-07T16:56:59;5.90;87.40
21493;DHT22;10908;50.690;4.400;2022-12-07T16:59:25;6.00;87.40
21493;DHT22;10908;50.690;4.400;2022-12-07T17:01:51;5.90;87.30
21493;DHT22;10908;50.690;4.400;2022-12-07T17:04:17;5.90;87.40
21493;DHT22;10908;50.690;4.400;2022-12-07T17:06:42;6.00;87.30
21493;DHT22;10908;50.690;4.400;2022-12-07T17:09:08;6.00;87.10
21493;DHT22;10908;50.690;4.400;2022-12-07T17:11:35;5.90;86.80
21493;DHT22;10908;50.690;4.400;2022-12-07T17:14:01;5.90;86.80
21493;DHT22;10908;50.690;4.400;2022-12-07T17:16:45;5.80;86.70
21493;DHT22;10908;50.690;4.400;2022-12-07T17:19:14;5.80;86.80
21493;DHT22;10908;50.690;4.400;2022-12-07T17:21:41;5.80;86.90
21493;DHT22;10908;50.690;4.400;2022-12-07T17:24:09;5.90;86.90
21493;DHT22;10908;50.690;4.400;2022-12-07T17:26:35;5.90;86.90
21493;DHT22;10908;50.690;4.400;2022-12-07T17:29:02;6.00;86.80
21493;DHT22;10908;50.690;4.400;2022-12-07T17:31:29;6.10;86.50
21493;DHT22;10908;50.690;4.400;2022-12-07T17:33:54;6.00;86.40
21493;DHT22;10908;50.690;4.400;2022-12-07T17:36:22;6.00;86.40
21493;DHT22;10908;50.690;4.400;2022-12-07T17:38:49;6.00;86.50
21493;DHT22;10908;50.690;4.400;2022-12-07T17:41:20;5.90;86.70
21493;DHT22;10908;50.690;4.400;2022-12-07T17:44:08;5.90;86.80
21493;DHT22;10908;50.690;4.400;2022-12-07T17:46:35;5.90;87.10
21493;DHT22;10908;50.690;4.400;2022-12-07T17:49:01;5.90;87.10
21493;DHT22;10908;50.690;4.400;2022-12-07T17:51:26;5.80;87.30
21493;DHT22;10908;50.690;4.400;2022-12-07T17:54:11;5.80;87.40
21493;DHT22;10908;50.690;4.400;2022-12-07T17:56:37;5.80;87.70
21493;DHT22;10908;50.690;4.400;2022-12-07T17:59:03;5.80;87.80
21493;DHT22;10908;50.690;4.400;2022-12-07T18:01:29;5.90;87.80
21493;DHT22;10908;50.690;4.400;2022-12-07T18:03:55;5.90;87.90
21493;DHT22;10908;50.690;4.400;2022-12-07T18:06:21;6.00;87.80
21493;DHT22;10908;50.690;4.400;2022-12-07T18:08:46;5.90;87.90
21493;DHT22;10908;50.690;4.400;2022-12-07T18:11:12;6.00;88.00
21493;DHT22;10908;50.690;4.400;2022-12-07T18:13:38;5.90;88.20
21493;DHT22;10908;50.690;4.400;2022-12-07T18:16:15;5.90;88.40
21493;DHT22;10908;50.690;4.400;2022-12-07T18:18:46;5.90;88.40
21493;DHT22;10908;50.690;4.400;2022-12-07T18:21:15;5.90;88.50
21493;DHT22;10908;50.690;4.400;2022-12-07T18:23:49;5.90;88.50
21493;DHT22;10908;50.690;4.400;2022-12-07T18:26:16;5.90;88.40
21493;DHT22;10908;50.690;4.400;2022-12-07T18:28:43;6.00;88.20
21493;DHT22;10908;50.690;4.400;2022-12-07T18:31:09;5.80;88.30
21493;DHT22;10908;50.690;4.400;2022-12-07T18:33:35;5.80;88.40